Time;durP1;ratioP1;P1;durP2;ratioP2;P2;SDS_P1;SDS_P2;PMS_P1;PMS_P2;Temp;Humidity;BMP_temperature;BMP_pressure;BME280_temperature;BME280_humidity;BME280_pressure;Samples;Min_cycle;Max_cycle;Signal;HPM_P1;HPM_P2
2023/05/16 00:02:17;;;;;;;12.80;9.73;;;;;;;13.63;nan;100277.69;4984053;28;20030;-87
2023/05/16 00:04:43;;;;;;;14.80;11.43;;;;;;;13.62;nan;100276.06;4990130;28;20066;-87
2023/05/16 00:07:08;;;;;;;14.65;10.75;;;;;;;13.62;nan;100275.25;4971386;28;20070;-87
2023/05/16 00:09:33;;;;;;;14.30;10.95;;;;;;;13.63;nan;100277.69;4987523;28;20519;-89
2023/05/16 00:11:59;;;;;;;18.20;13.55;;;;;;;13.54;nan;100276.13;4973982;28;20073;-88
2023/05/16 00:14:25;;;;;;;19.92;14.00;;;;;;;13.57;nan;100273.94;4970716;28;20030;-87
2023/05/16 00:16:57;;;;;;;19.10;14.77;;;;;;;13.56;nan;100276.75;4993247;28;20424;-88
2023/05/16 00:19:22;;;;;;;15.40;11.65;;;;;;;13.55;nan;100272.47;4971747;28;20129;-89
2023/05/16 00:21:48;;;;;;;17.15;12.77;;;;;;;13.51;nan;100279.94;4974358;28;20591;-88
2023/05/16 00:24:13;;;;;;;20.42;14.35;;;;;;;13.46;nan;100265.56;4973426;28;20045;-88
2023/05/16 00:26:38;;;;;;;17.23;13.65;;;;;;;13.44;nan;100275.53;4973841;28;20118;-87
2023/05/16 00:29:03;;;;;;;17.25;12.68;;;;;;;13.40;nan;100269.75;4971749;28;20050;-87
2023/05/16 00:31:29;;;;;;;23.47;13.97;;;;;;;13.41;nan;100268.75;4959673;28;20447;-88
2023/05/16 00:33:54;;;;;;;16.50;12.60;;;;;;;13.40;nan;100266.28;4989015;28;20300;-88
2023/05/16 00:36:20;;;;;;;19.70;14.93;;;;;;;13.27;nan;100272.97;4978000;28;20053;-90
2023/05/16 00:38:46;;;;;;;19.60;14.35;;;;;;;13.31;nan;100268.97;4973088;28;20404;-89
2023/05/16 00:41:12;;;;;;;19.23;13.73;;;;;;;13.26;nan;100271.31;4968706;28;20022;-88
2023/05/16 00:43:38;;;;;;;20.67;14.73;;;;;;;13.25;nan;100272.31;4963666;28;20436;-87
2023/05/16 00:46:04;;;;;;;22.98;16.48;;;;;;;13.20;nan;100271.16;4988464;28;20760;-87
2023/05/16 00:48:29;;;;;;;22.10;15.35;;;;;;;13.17;nan;100267.03;4983061;28;20097;-87
2023/05/16 00:50:55;;;;;;;20.85;16.20;;;;;;;13.10;nan;100266.09;4967271;28;20462;-88
2023/05/16 00:53:20;;;;;;;22.92;16.75;;;;;;;13.10;nan;100274.03;4970672;28;20045;-87
2023/05/16 00:55:46;;;;;;;19.33;15.35;;;;;;;13.04;nan;100274.72;4978094;28;20050;-85
2023/05/16 00:58:11;;;;;;;23.00;16.10;;;;;;;13.03;nan;100271.25;4975833;28;20066;-86
2023/05/16 01:00:37;;;;;;;21.73;15.48;;;;;;;13.03;nan;100268.59;4981925;28;20118;-87
2023/05/16 01:03:05;;;;;;;24.52;16.90;;;;;;;12.95;nan;100269.47;4973652;28;20480;-87
2023/05/16 01:05:30;;;;;;;20.27;14.63;;;;;;;12.99;nan;100269.13;4975155;28;20034;-87
2023/05/16 01:07:56;;;;;;;29.20;18.10;;;;;;;12.90;nan;100271.00;4972295;28;20061;-87
2023/05/16 01:10:22;;;;;;;22.20;14.70;;;;;;;12.94;nan;100278.44;4982288;28;20058;-87
2023/05/16 01:13:08;;;;;;;23.45;17.25;;;;;;;12.93;nan;100282.09;4973022;28;20080;-87
2023/05/16 01:15:46;;;;;;;22.40;15.90;;;;;;;12.90;nan;100278.97;4981889;28;20038;-87
2023/05/16 01:18:30;;;;;;;26.17;18.08;;;;;;;12.89;nan;100280.78;4990138;28;20384;-87
2023/05/16 01:21:02;;;;;;;25.10;17.92;;;;;;;12.86;nan;100288.25;4981327;28;20041;-87
2023/05/16 01:23:51;;;;;;;23.67;16.30;;;;;;;12.82;nan;100286.94;4960177;28;20039;-87
2023/05/16 01:26:25;;;;;;;24.35;16.65;;;;;;;12.79;nan;100280.16;4975528;28;20508;-86
2023/05/16 01:28:51;;;;;;;21.15;15.18;;;;;;;12.77;nan;100282.16;4966035;28;20034;-87
2023/05/16 01:31:17;;;;;;;22.63;16.38;;;;;;;12.72;nan;100285.31;4981429;28;20066;-86
2023/05/16 01:33:43;;;;;;;21.50;15.05;;;;;;;12.74;nan;100285.16;4985722;28;20096;-86
2023/05/16 01:36:17;;;;;;;23.05;16.42;;;;;;;12.68;nan;100284.03;4973008;28;20042;-87
2023/05/16 01:39:14;;;;;;;26.23;18.73;;;;;;;12.61;nan;100277.75;4983225;28;20057;-86
2023/05/16 01:41:50;;;;;;;26.77;18.88;;;;;;;12.57;nan;100283.56;4961264;28;20062;-87
2023/05/16 01:44:27;;;;;;;29.20;19.98;;;;;;;12.52;nan;100282.25;4954995;28;20030;-86
2023/05/16 01:46:56;;;;;;;30.90;21.75;;;;;;;12.50;nan;100284.25;4978584;28;20061;-86
2023/05/16 01:49:40;;;;;;;31.50;22.38;;;;;;;12.47;nan;100281.94;4988839;28;20038;-87
2023/05/16 01:52:13;;;;;;;35.30;24.42;;;;;;;12.48;nan;100280.09;4962311;28;20288;-86
2023/05/16 01:54:44;;;;;;;32.05;22.58;;;;;;;12.46;nan;100290.06;4968293;28;20043;-86
2023/05/16 01:57:09;;;;;;;33.72;23.45;;;;;;;12.44;nan;100286.75;4963130;28;20080;-86
2023/05/16 01:59:35;;;;;;;30.88;21.85;;;;;;;12.46;nan;100292.72;4957561;28;20046;-87
2023/05/16 02:02:01;;;;;;;36.33;23.63;;;;;;;12.44;nan;100287.59;4980901;28;20043;-86
2023/05/16 02:04:26;;;;;;;30.02;21.30;;;;;;;12.42;nan;100281.63;4981418;28;20038;-87
2023/05/16 02:06:52;;;;;;;35.35;24.63;;;;;;;12.45;nan;100291.06;4982413;28;20054;-86
2023/05/16 02:09:17;;;;;;;35.78;24.50;;;;;;;12.44;nan;100292.91;4963755;28;20039;-86
2023/05/16 02:11:42;;;;;;;34.83;23.52;;;;;;;12.47;nan;100291.72;4965251;28;20248;-86
2023/05/16 02:14:08;;;;;;;34.83;22.65;;;;;;;12.47;nan;100297.03;4970999;28;20369;-86
2023/05/16 02:16:34;;;;;;;31.10;21.83;;;;;;;12.49;nan;100295.03;4979798;28;20126;-87
2023/05/16 02:19:00;;;;;;;28.55;20.60;;;;;;;12.50;nan;100296.69;4985560;28;20051;-86
2023/05/16 02:21:26;;;;;;;33.58;22.25;;;;;;;12.49;nan;100292.38;4959989;28;20038;-88
2023/05/16 02:23:51;;;;;;;35.15;23.13;;;;;;;12.53;nan;100291.84;4964827;28;20080;-86
2023/05/16 02:26:16;;;;;;;34.05;23.23;;;;;;;12.50;nan;100296.69;4974213;28;20049;-87
2023/05/16 02:28:41;;;;;;;38.88;25.52;;;;;;;12.48;nan;100294.19;4967952;28;20452;-87
2023/05/16 02:31:07;;;;;;;34.95;24.17;;;;;;;12.42;nan;100288.72;4975456;28;20034;-86
2023/05/16 02:33:33;;;;;;;36.47;25.45;;;;;;;12.47;nan;100289.91;4977156;28;20042;-87
2023/05/16 02:35:58;;;;;;;36.78;24.55;;;;;;;12.44;nan;100292.91;4981732;28;20038;-87
2023/05/16 02:38:24;;;;;;;40.08;25.90;;;;;;;12.40;nan;100288.91;4974565;28;21901;-87
2023/05/16 02:40:49;;;;;;;36.28;24.02;;;;;;;12.38;nan;100292.75;4953186;28;20034;-86
2023/05/16 02:43:15;;;;;;;31.75;22.20;;;;;;;12.33;nan;100290.59;4979561;28;20054;-87
2023/05/16 02:45:40;;;;;;;35.88;25.92;;;;;;;12.21;nan;100297.25;4979144;28;20031;-86
2023/05/16 02:48:06;;;;;;;37.67;26.10;;;;;;;12.16;nan;100287.16;4960254;28;20041;-87
2023/05/16 02:50:32;;;;;;;31.13;22.00;;;;;;;12.11;nan;100292.94;4974789;28;20507;-87
2023/05/16 02:52:58;;;;;;;35.95;24.27;;;;;;;12.07;nan;100291.63;4988123;28;20191;-87
2023/05/16 02:55:25;;;;;;;41.28;26.88;;;;;;;12.02;nan;100293.94;4969635;28;20081;-86
2023/05/16 02:57:51;;;;;;;40.03;26.83;;;;;;;11.98;nan;100287.31;4952476;28;20575;-86
2023/05/16 03:00:17;;;;;;;34.97;23.83;;;;;;;11.96;nan;100299.06;4969423;28;20046;-86
2023/05/16 03:02:43;;;;;;;37.88;25.08;;;;;;;11.88;nan;100302.56;4980144;28;20034;-87
2023/05/16 03:05:08;;;;;;;36.28;24.60;;;;;;;11.80;nan;100298.06;4983624;28;20042;-86
2023/05/16 03:07:34;;;;;;;40.97;27.50;;;;;;;11.73;nan;100294.41;4983958;28;20129;-88
2023/05/16 03:09:59;;;;;;;38.65;26.15;;;;;;;11.65;nan;100300.53;4991031;28;20427;-87
2023/05/16 03:12:25;;;;;;;41.53;26.17;;;;;;;11.53;nan;100293.06;4990130;28;20443;-87
2023/05/16 03:14:50;;;;;;;37.83;26.35;;;;;;;11.45;nan;100291.25;4978880;28;20050;-87
2023/05/16 03:17:16;;;;;;;39.30;26.30;;;;;;;11.38;nan;100300.81;4974640;28;20039;-86
2023/05/16 03:19:41;;;;;;;37.42;26.58;;;;;;;11.35;nan;100306.47;4969190;28;20047;-87
2023/05/16 03:22:06;;;;;;;36.33;25.83;;;;;;;11.27;nan;100300.16;4977328;28;20034;-86
2023/05/16 03:24:32;;;;;;;36.17;24.95;;;;;;;11.24;nan;100313.69;4982563;28;20038;-87
2023/05/16 03:26:58;;;;;;;32.20;22.33;;;;;;;11.21;nan;100310.56;4987482;28;20038;-86
2023/05/16 03:29:25;;;;;;;38.70;24.77;;;;;;;11.15;nan;100319.94;4989924;28;20049;-86
2023/05/16 03:31:50;;;;;;;33.80;22.60;;;;;;;11.14;nan;100314.84;4988557;28;20061;-87
2023/05/16 03:34:15;;;;;;;30.77;21.13;;;;;;;11.12;nan;100317.63;4971687;28;20065;-84
2023/05/16 03:36:41;;;;;;;36.60;24.65;;;;;;;11.08;nan;100318.09;4968237;28;20062;-86
2023/05/16 03:39:07;;;;;;;32.95;22.25;;;;;;;11.04;nan;100314.97;4987634;28;20034;-86
2023/05/16 03:41:35;;;;;;;33.22;22.58;;;;;;;11.02;nan;100316.94;4968827;28;20093;-85
2023/05/16 03:44:00;;;;;;;30.33;20.33;;;;;;;11.02;nan;100323.06;4980241;28;20034;-85
2023/05/16 03:46:26;;;;;;;26.52;18.50;;;;;;;11.02;nan;100317.75;4970089;28;20038;-85
2023/05/16 03:48:51;;;;;;;34.78;22.60;;;;;;;10.96;nan;100322.84;4987025;28;20057;-85
2023/05/16 03:51:16;;;;;;;33.03;21.80;;;;;;;11.01;nan;100323.19;4975649;28;20343;-85
2023/05/16 03:53:42;;;;;;;27.83;19.13;;;;;;;11.03;nan;100318.59;4990077;28;20057;-85
2023/05/16 03:56:07;;;;;;;30.05;19.65;;;;;;;11.07;nan;100324.41;4975612;28;20184;-85
2023/05/16 03:58:32;;;;;;;30.88;21.30;;;;;;;11.05;nan;100328.00;4979375;28;20510;-85
2023/05/16 04:00:58;;;;;;;31.00;19.88;;;;;;;11.03;nan;100335.28;4976917;28;20046;-85
2023/05/16 04:03:27;;;;;;;25.35;17.15;;;;;;;11.09;nan;100331.19;4968876;28;20086;-85
2023/05/16 04:05:56;;;;;;;23.83;17.83;;;;;;;11.12;nan;100338.78;4978402;28;20046;-85
2023/05/16 04:08:21;;;;;;;26.08;17.70;;;;;;;11.10;nan;100332.81;4994004;28;20033;-85
2023/05/16 04:10:46;;;;;;;27.55;18.90;;;;;;;11.14;nan;100351.88;4988523;28;20682;-85
2023/05/16 04:13:12;;;;;;;28.08;18.77;;;;;;;11.19;nan;100347.75;4974609;28;20274;-85
2023/05/16 04:15:37;;;;;;;25.08;17.70;;;;;;;11.23;nan;100346.44;4987952;28;20069;-84
2023/05/16 04:18:03;;;;;;;28.25;18.83;;;;;;;11.30;nan;100354.59;4990375;28;20039;-85
2023/05/16 04:20:29;;;;;;;27.00;17.67;;;;;;;11.38;nan;100356.44;4989862;28;20077;-85
2023/05/16 04:22:55;;;;;;;25.55;17.58;;;;;;;11.37;nan;100354.75;4984915;28;20117;-85
2023/05/16 04:25:20;;;;;;;31.48;19.00;;;;;;;11.33;nan;100356.09;4986663;28;20512;-85
2023/05/16 04:27:46;;;;;;;26.25;17.98;;;;;;;11.38;nan;100353.78;4996473;28;20046;-85
2023/05/16 04:30:13;;;;;;;24.77;17.85;;;;;;;11.44;nan;100351.31;5001395;28;20503;-86
2023/05/16 04:32:39;;;;;;;25.13;17.73;;;;;;;11.46;nan;100354.63;4993010;28;20539;-85
2023/05/16 04:35:04;;;;;;;27.00;18.35;;;;;;;11.44;nan;100351.31;4996402;28;20128;-85
2023/05/16 04:37:30;;;;;;;28.05;17.88;;;;;;;11.52;nan;100365.56;4995720;28;20040;-85
2023/05/16 04:39:57;;;;;;;26.45;16.75;;;;;;;11.56;nan;100362.44;4982365;28;20047;-85
2023/05/16 04:42:23;;;;;;;24.27;16.75;;;;;;;11.63;nan;100362.59;5000767;28;20370;-85
2023/05/16 04:44:49;;;;;;;25.35;16.85;;;;;;;11.71;nan;100370.56;4993574;28;20049;-88
2023/05/16 04:47:14;;;;;;;28.65;18.05;;;;;;;11.72;nan;100376.69;5000834;28;20137;-88
2023/05/16 04:49:39;;;;;;;23.13;16.02;;;;;;;11.82;nan;100382.66;4987103;28;20034;-87
2023/05/16 04:52:07;;;;;;;23.80;16.15;;;;;;;11.86;nan;100384.81;4985225;28;20141;-88
2023/05/16 04:54:33;;;;;;;21.63;14.57;;;;;;;11.99;nan;100388.84;4994503;28;20042;-86
2023/05/16 04:56:58;;;;;;;24.50;16.08;;;;;;;12.05;nan;100389.00;4973094;28;20113;-86
2023/05/16 04:59:23;;;;;;;26.67;17.75;;;;;;;12.01;nan;100381.56;4987416;28;20053;-87
2023/05/16 05:01:49;;;;;;;26.83;17.35;;;;;;;12.03;nan;100383.03;4990433;28;20098;-87
2023/05/16 05:04:16;;;;;;;24.17;15.65;;;;;;;12.07;nan;100386.22;4983956;28;20054;-87
2023/05/16 05:06:42;;;;;;;26.17;17.42;;;;;;;12.06;nan;100392.47;4981833;28;20038;-86
2023/05/16 05:09:07;;;;;;;27.05;16.75;;;;;;;12.13;nan;100390.81;4980693;28;20038;-86
2023/05/16 05:11:33;;;;;;;23.13;15.90;;;;;;;12.12;nan;100394.50;4987052;28;20045;-87
2023/05/16 05:13:58;;;;;;;27.20;15.95;;;;;;;12.20;nan;100401.59;4992594;28;20031;-87
2023/05/16 05:16:24;;;;;;;29.02;17.67;;;;;;;12.22;nan;100402.28;4974655;28;20406;-86
2023/05/16 05:18:49;;;;;;;25.33;17.13;;;;;;;12.21;nan;100397.97;4981417;28;20518;-86
2023/05/16 05:21:15;;;;;;;21.50;15.00;;;;;;;12.30;nan;100407.59;4976138;28;20117;-87
2023/05/16 05:23:40;;;;;;;26.17;17.23;;;;;;;12.35;nan;100409.72;4991630;28;20443;-87
2023/05/16 05:26:05;;;;;;;24.98;16.48;;;;;;;12.41;nan;100403.75;4963285;28;20085;-87
2023/05/16 05:28:31;;;;;;;29.95;18.17;;;;;;;12.32;nan;100403.78;4971854;28;20130;-88
2023/05/16 05:30:56;;;;;;;24.45;15.68;;;;;;;12.35;nan;100409.72;4983683;28;20119;-89
2023/05/16 05:33:25;;;;;;;24.48;16.65;;;;;;;12.27;nan;100405.25;4978765;28;20109;-89
2023/05/16 05:35:52;;;;;;;23.08;15.82;;;;;;;12.33;nan;100408.06;4973644;28;20105;-89
2023/05/16 05:38:18;;;;;;;23.60;15.35;;;;;;;12.35;nan;100405.28;4972731;28;20290;-88
2023/05/16 05:40:43;;;;;;;26.33;16.90;;;;;;;12.40;nan;100405.59;4974379;28;20121;-89
2023/05/16 05:43:08;;;;;;;23.33;15.77;;;;;;;12.44;nan;100417.53;4973673;28;20057;-88
2023/05/16 05:45:37;;;;;;;21.88;14.05;;;;;;;12.55;nan;100421.66;4990156;28;20034;-88
2023/05/16 05:48:02;;;;;;;25.95;16.70;;;;;;;12.42;nan;100416.88;4984750;28;20042;-88
2023/05/16 05:50:28;;;;;;;23.63;15.65;;;;;;;12.52;nan;100424.66;4967134;28;20043;-88
2023/05/16 05:52:54;;;;;;;25.98;16.10;;;;;;;12.56;nan;100417.16;4977440;28;20042;-87
2023/05/16 05:55:20;;;;;;;25.73;16.95;;;;;;;12.65;nan;100419.66;4988638;28;20101;-87
2023/05/16 05:57:45;;;;;;;21.67;13.27;;;;;;;12.77;nan;100420.13;4989313;28;20149;-87
2023/05/16 06:00:11;;;;;;;23.73;15.32;;;;;;;12.81;nan;100426.75;4985614;28;20152;-87
2023/05/16 06:02:36;;;;;;;26.50;15.70;;;;;;;12.72;nan;100425.94;4989373;28;20045;-89
2023/05/16 06:05:01;;;;;;;23.33;15.57;;;;;;;12.78;nan;100428.94;4983913;28;20046;-88
2023/05/16 06:07:27;;;;;;;20.50;13.88;;;;;;;12.88;nan;100425.09;4976342;28;20035;-88
2023/05/16 06:09:52;;;;;;;21.73;14.68;;;;;;;12.85;nan;100435.22;4990889;28;20039;-87
2023/05/16 06:12:20;;;;;;;27.98;16.00;;;;;;;12.94;nan;100431.53;4982551;28;20063;-85
2023/05/16 06:14:45;;;;;;;19.52;13.15;;;;;;;13.17;nan;100429.81;4979365;28;20252;-89
2023/05/16 06:17:11;;;;;;;18.75;13.07;;;;;;;13.36;nan;100431.28;4970563;28;20030;-87
2023/05/16 06:19:36;;;;;;;23.10;14.88;;;;;;;13.46;nan;100433.72;4972951;28;20039;-87
2023/05/16 06:22:01;;;;;;;23.13;14.48;;;;;;;13.51;nan;100433.19;4992304;28;20039;-88
2023/05/16 06:24:28;;;;;;;18.77;11.68;;;;;;;13.58;nan;100436.81;4984561;28;20107;-87
2023/05/16 06:26:54;;;;;;;22.92;13.88;;;;;;;13.51;nan;100431.38;4993923;28;20575;-88
2023/05/16 06:29:19;;;;;;;21.05;13.15;;;;;;;13.57;nan;100440.50;4976978;28;20066;-87
2023/05/16 06:31:46;;;;;;;27.92;13.15;;;;;;;13.69;nan;100440.94;4991503;28;20157;-86
2023/05/16 06:34:11;;;;;;;17.40;12.10;;;;;;;13.81;nan;100445.66;4973817;28;20049;-86
2023/05/16 06:36:40;;;;;;;21.30;13.23;;;;;;;13.85;nan;100438.19;4970715;28;20034;-86
2023/05/16 06:39:05;;;;;;;21.73;13.23;;;;;;;13.81;nan;100444.84;4963746;28;20039;-89
2023/05/16 06:41:30;;;;;;;18.63;12.80;;;;;;;13.75;nan;100441.06;4973195;28;20048;-86
2023/05/16 06:43:56;;;;;;;15.88;11.60;;;;;;;13.66;nan;100443.91;4972450;28;20045;-87
2023/05/16 06:46:21;;;;;;;15.82;10.57;;;;;;;13.83;nan;100444.69;4971750;28;20045;-87
2023/05/16 06:48:47;;;;;;;22.38;13.00;;;;;;;13.71;nan;100452.22;4972079;28;20058;-87
2023/05/16 06:51:12;;;;;;;19.75;11.38;;;;;;;13.69;nan;100451.56;4980638;28;20042;-87
2023/05/16 06:53:40;;;;;;;18.45;11.20;;;;;;;13.65;nan;100445.75;4961189;28;20058;-87
2023/05/16 06:56:05;;;;;;;16.63;11.00;;;;;;;13.65;nan;100451.06;4968375;28;20048;-87
2023/05/16 06:58:31;;;;;;;18.35;11.65;;;;;;;13.59;nan;100457.91;4970026;28;20038;-87
2023/05/16 07:00:56;;;;;;;17.10;11.57;;;;;;;13.67;nan;100457.03;4988152;28;20042;-86
2023/05/16 07:03:22;;;;;;;17.10;10.10;;;;;;;13.69;nan;100462.19;4987881;28;20046;-87
2023/05/16 07:05:49;;;;;;;17.48;9.80;;;;;;;13.71;nan;100465.50;4972264;28;20041;-86
2023/05/16 07:08:15;;;;;;;13.77;9.15;;;;;;;13.68;nan;100469.34;4980987;28;20452;-87
2023/05/16 07:10:40;;;;;;;13.02;8.80;;;;;;;13.73;nan;100471.44;4966791;28;20129;-87
2023/05/16 07:13:06;;;;;;;10.32;6.40;;;;;;;13.59;nan;100475.69;4980576;28;20035;-87
2023/05/16 07:15:31;;;;;;;7.50;5.63;;;;;;;13.42;nan;100479.38;4979311;28;20484;-86
2023/05/16 07:17:57;;;;;;;9.10;5.53;;;;;;;13.40;nan;100481.41;4982526;28;20413;-87
2023/05/16 07:20:22;;;;;;;6.90;4.55;;;;;;;13.35;nan;100481.94;4981944;28;20118;-86
2023/05/16 07:22:47;;;;;;;5.32;4.10;;;;;;;13.30;nan;100487.75;4982383;28;20049;-86
2023/05/16 07:25:14;;;;;;;4.88;3.40;;;;;;;13.29;nan;100485.25;4976259;28;20033;-87
2023/05/16 07:27:40;;;;;;;4.18;2.60;;;;;;;13.29;nan;100480.75;4975342;28;20125;-87
2023/05/16 07:30:08;;;;;;;4.07;2.30;;;;;;;13.16;nan;100483.94;4975471;28;20471;-86
2023/05/16 07:32:33;;;;;;;3.55;2.20;;;;;;;13.15;nan;100489.41;4975671;28;20038;-86
2023/05/16 07:34:59;;;;;;;3.40;2.38;;;;;;;13.00;nan;100493.75;4992689;28;20072;-86
2023/05/16 07:37:24;;;;;;;3.40;2.22;;;;;;;12.99;nan;100484.97;4978341;28;20081;-87
2023/05/16 07:39:50;;;;;;;3.40;2.28;;;;;;;12.94;nan;100493.44;4963883;28;20034;-86
2023/05/16 07:42:15;;;;;;;2.95;2.00;;;;;;;12.84;nan;100500.72;4974989;28;20294;-86
2023/05/16 07:44:40;;;;;;;3.53;2.00;;;;;;;12.76;nan;100490.13;4971712;28;20404;-87
2023/05/16 07:47:06;;;;;;;2.65;2.03;;;;;;;12.65;nan;100499.22;4961719;28;20046;-87
2023/05/16 07:49:31;;;;;;;2.53;1.88;;;;;;;12.53;nan;100509.34;4969510;28;20034;-86
2023/05/16 07:51:57;;;;;;;3.30;2.00;;;;;;;12.44;nan;100513.00;4990084;28;20038;-89
2023/05/16 07:54:22;;;;;;;3.47;2.38;;;;;;;12.27;nan;100512.13;4974913;28;20042;-87
2023/05/16 07:56:47;;;;;;;3.88;2.55;;;;;;;12.32;nan;100516.94;4975882;28;20030;-88
2023/05/16 07:59:13;;;;;;;2.45;1.90;;;;;;;12.29;nan;100519.94;4992083;28;20062;-87
2023/05/16 08:01:39;;;;;;;2.38;1.55;;;;;;;12.29;nan;100518.09;4976385;28;20410;-85
2023/05/16 08:04:04;;;;;;;3.13;1.48;;;;;;;12.24;nan;100525.72;4975574;28;20185;-87
2023/05/16 08:06:30;;;;;;;1.95;1.30;;;;;;;12.16;nan;100532.84;4974063;28;20117;-86
2023/05/16 08:08:55;;;;;;;2.80;1.35;;;;;;;12.18;nan;100529.03;4992084;28;20031;-86
2023/05/16 08:11:21;;;;;;;1.63;1.15;;;;;;;12.24;nan;100519.59;4983524;28;20023;-86
2023/05/16 08:13:47;;;;;;;1.63;1.15;;;;;;;12.29;nan;100531.34;4972427;28;20038;-87
2023/05/16 08:16:12;;;;;;;2.10;1.30;;;;;;;12.40;nan;100527.56;4991901;28;20034;-87
2023/05/16 08:18:38;;;;;;;2.03;1.10;;;;;;;12.41;nan;100529.22;4975176;28;20049;-87
2023/05/16 08:21:04;;;;;;;1.00;0.75;;;;;;;12.48;nan;100535.53;4989301;28;20037;-87
2023/05/16 08:23:29;;;;;;;2.60;1.05;;;;;;;12.65;nan;100538.19;4961377;28;20058;-86
2023/05/16 08:25:54;;;;;;;1.30;0.88;;;;;;;12.85;nan;100542.19;4990921;28;20161;-89
2023/05/16 08:28:20;;;;;;;1.30;1.10;;;;;;;12.77;nan;100541.34;4972785;28;20404;-86
2023/05/16 08:30:45;;;;;;;1.20;0.80;;;;;;;12.78;nan;100543.03;4972814;28;20086;-87
2023/05/16 08:33:10;;;;;;;1.35;0.82;;;;;;;12.89;nan;100554.13;4969694;28;20074;-86
2023/05/16 08:35:36;;;;;;;0.80;0.70;;;;;;;13.03;nan;100541.19;4969145;28;20031;-88
2023/05/16 08:38:04;;;;;;;1.42;0.80;;;;;;;12.99;nan;100543.38;4989163;28;20113;-87
2023/05/16 08:40:30;;;;;;;2.60;0.85;;;;;;;13.04;nan;100538.38;4987275;28;20042;-86
2023/05/16 08:42:56;;;;;;;1.20;0.80;;;;;;;13.13;nan;100549.78;4989548;28;20802;-87
2023/05/16 08:45:22;;;;;;;1.58;1.00;;;;;;;13.24;nan;100543.31;4974529;28;20061;-87
2023/05/16 08:47:50;;;;;;;4.13;0.90;;;;;;;13.54;nan;100541.78;4979489;28;20050;-88
2023/05/16 08:50:15;;;;;;;1.40;1.00;;;;;;;13.87;nan;100539.84;4978907;28;20036;-88
2023/05/16 08:52:42;;;;;;;1.70;0.90;;;;;;;14.06;nan;100543.88;4984429;28;20528;-86
2023/05/16 08:55:08;;;;;;;1.65;1.00;;;;;;;14.28;nan;100549.41;4972663;28;20042;-88
2023/05/16 08:57:34;;;;;;;1.20;0.90;;;;;;;14.50;nan;100540.66;4974180;28;20563;-87
2023/05/16 08:59:59;;;;;;;1.67;0.70;;;;;;;14.65;nan;100546.06;4990873;28;20324;-86
2023/05/16 09:02:26;;;;;;;1.83;1.00;;;;;;;14.93;nan;100554.31;4990496;28;20046;-86
2023/05/16 09:04:56;;;;;;;1.13;0.73;;;;;;;15.02;nan;100544.44;4986888;28;20045;-87
2023/05/16 09:08:03;;;;;;;1.25;0.85;;;;;;;15.28;nan;100546.69;4985671;28;20516;-87
2023/05/16 09:10:28;;;;;;;1.73;0.70;;;;;;;15.68;nan;100555.22;4976540;28;20058;-87
2023/05/16 09:12:53;;;;;;;1.00;0.70;;;;;;;15.70;nan;100547.91;4957464;28;20038;-87
2023/05/16 09:15:20;;;;;;;1.20;0.70;;;;;;;15.59;nan;100546.50;4987772;28;20034;-88
2023/05/16 09:17:46;;;;;;;1.65;1.00;;;;;;;15.29;nan;100549.16;4974236;28;20042;-86
2023/05/16 09:20:23;;;;;;;1.52;1.00;;;;;;;14.74;nan;100558.28;4964672;28;20065;-87
2023/05/16 09:22:51;;;;;;;1.20;0.75;;;;;;;14.33;nan;100555.88;4969424;28;20129;-87
2023/05/16 09:25:17;;;;;;;1.73;0.77;;;;;;;13.87;nan;100560.25;4969266;28;20069;-86
2023/05/16 09:27:42;;;;;;;0.95;0.60;;;;;;;13.15;nan;100566.38;4977325;28;20493;-84
2023/05/16 09:30:08;;;;;;;1.00;0.60;;;;;;;12.68;nan;100567.03;4958113;28;20118;-87
2023/05/16 09:32:33;;;;;;;1.45;0.80;;;;;;;12.43;nan;100566.19;4959778;28;20038;-86
2023/05/16 09:34:59;;;;;;;1.20;0.53;;;;;;;12.38;nan;100569.34;4973455;28;20089;-86
2023/05/16 09:37:24;;;;;;;;;;;;;;;12.28;nan;100581.91;4962981;28;20899;-85
2023/05/16 09:39:52;;;;;;;1.27;0.80;;;;;;;12.16;nan;100584.03;4970598;28;19918;-85
2023/05/16 09:42:19;;;;;;;1.70;0.95;;;;;;;12.19;nan;100590.84;4967530;28;20406;-86
2023/05/16 09:44:52;;;;;;;1.15;0.80;;;;;;;12.18;nan;100581.19;4969492;28;20396;-87
2023/05/16 09:47:18;;;;;;;0.70;0.50;;;;;;;12.22;nan;100590.50;4969453;28;20409;-87
2023/05/16 09:49:45;;;;;;;0.60;0.50;;;;;;;12.47;nan;100594.88;4976790;28;20502;-86
2023/05/16 09:52:11;;;;;;;1.08;0.55;;;;;;;12.68;nan;100594.44;4973096;28;20416;-86
2023/05/16 09:54:36;;;;;;;1.10;0.47;;;;;;;12.95;nan;100590.63;4974847;28;20403;-86
2023/05/16 09:57:02;;;;;;;0.40;0.40;;;;;;;13.36;nan;100598.59;4969355;28;20484;-86
2023/05/16 09:59:29;;;;;;;0.50;0.45;;;;;;;13.51;nan;100593.41;4970376;28;20061;-86
2023/05/16 10:01:58;;;;;;;2.85;0.50;;;;;;;13.42;nan;100601.56;4981048;28;20030;-85
2023/05/16 10:04:23;;;;;;;2.75;0.70;;;;;;;13.58;nan;100605.03;4988665;28;20428;-87
2023/05/16 10:06:51;;;;;;;1.70;0.90;;;;;;;13.60;nan;100599.56;4970031;28;20073;-85
2023/05/16 10:09:17;;;;;;;1.48;0.68;;;;;;;13.49;nan;100605.22;4979563;28;20035;-86
2023/05/16 10:11:43;;;;;;;0.80;0.47;;;;;;;13.46;nan;100603.72;4976276;28;20035;-87
2023/05/16 10:14:10;;;;;;;0.88;0.60;;;;;;;13.45;nan;100609.22;4970509;28;20031;-84
2023/05/16 10:16:36;;;;;;;3.90;0.70;;;;;;;13.18;nan;100611.22;4989009;28;20030;-86
2023/05/16 10:19:02;;;;;;;1.08;0.70;;;;;;;13.22;nan;100609.88;4971751;28;20039;-85
2023/05/16 10:21:31;;;;;;;2.20;0.70;;;;;;;13.40;nan;100614.22;4989786;28;20084;-86
2023/05/16 10:24:02;;;;;;;1.98;0.80;;;;;;;13.37;nan;100613.56;4971231;28;20042;-88
2023/05/16 10:26:28;;;;;;;2.72;0.82;;;;;;;13.49;nan;100606.06;4954917;28;20624;-87
2023/05/16 10:28:54;;;;;;;1.73;0.68;;;;;;;13.44;nan;100612.88;4969040;28;20039;-86
2023/05/16 10:31:20;;;;;;;1.50;0.70;;;;;;;13.59;nan;100613.84;4952242;28;20515;-85
2023/05/16 10:33:46;;;;;;;1.63;0.60;;;;;;;13.60;nan;100618.97;4969528;28;20035;-86
2023/05/16 10:36:14;;;;;;;2.17;0.75;;;;;;;13.47;nan;100624.00;4966933;28;20034;-86
2023/05/16 10:38:41;;;;;;;1.63;0.80;;;;;;;13.48;nan;100625.63;4975387;28;20572;-85
2023/05/16 10:41:07;;;;;;;1.15;0.75;;;;;;;13.54;nan;100626.81;4983292;28;20038;-87
2023/05/16 10:43:32;;;;;;;2.15;0.73;;;;;;;13.38;nan;100625.00;4984284;28;20049;-86
2023/05/16 10:46:08;;;;;;;1.52;0.70;;;;;;;13.59;nan;100616.50;4988879;28;20503;-85
2023/05/16 10:48:35;;;;;;;1.13;0.68;;;;;;;13.61;nan;100622.47;4969965;28;20053;-87
2023/05/16 10:51:21;;;;;;;1.45;0.70;;;;;;;13.62;nan;100623.31;4964948;28;20053;-84
2023/05/16 10:53:46;;;;;;;3.05;0.80;;;;;;;13.57;nan;100623.81;4976877;28;20046;-84
2023/05/16 10:56:12;;;;;;;0.93;0.68;;;;;;;13.45;nan;100615.34;4976211;28;20038;-85
2023/05/16 10:58:37;;;;;;;1.88;0.80;;;;;;;13.50;nan;100622.81;4983457;28;20031;-85
2023/05/16 11:01:35;;;;;;;3.13;0.90;;;;;;;13.49;nan;100627.31;4966619;28;20080;-86
2023/05/16 11:04:05;;;;;;;1.58;0.75;;;;;;;13.52;nan;100624.31;4934905;28;20049;-88
2023/05/16 11:06:44;;;;;;;2.63;0.80;;;;;;;13.52;nan;100631.47;4968344;28;20089;-85
2023/05/16 11:09:09;;;;;;;1.83;0.77;;;;;;;13.12;nan;100636.59;4986498;28;20034;-86
2023/05/16 11:11:53;;;;;;;1.75;0.70;;;;;;;12.94;nan;100634.09;4988009;28;20518;-85
2023/05/16 11:14:34;;;;;;;3.15;0.80;;;;;;;12.95;nan;100637.56;4982977;28;20150;-85
2023/05/16 11:17:14;;;;;;;1.42;0.80;;;;;;;12.92;nan;100637.91;4985682;28;20134;-84
2023/05/16 11:19:51;;;;;;;4.32;0.98;;;;;;;13.00;nan;100637.91;4960187;28;20050;-86
2023/05/16 11:22:23;;;;;;;2.28;0.90;;;;;;;13.01;nan;100636.91;4988123;28;20678;-82
2023/05/16 11:24:58;;;;;;;2.47;0.90;;;;;;;13.12;nan;100633.09;4979897;28;20383;-85
2023/05/16 11:27:29;;;;;;;2.75;1.00;;;;;;;13.26;nan;100643.06;4983978;28;20031;-85
2023/05/16 11:30:16;;;;;;;1.38;0.70;;;;;;;13.56;nan;100644.25;4968558;28;20488;-87
2023/05/16 11:32:44;;;;;;;1.63;0.80;;;;;;;13.78;nan;100641.88;4964929;28;20131;-85